sensor_id;sensor_type;location;lat;lon;timestamp;pressure;altitude;pressure_sealevel;temperature;humidity
7760;BME280;3924;48.830;9.262;2023-02-14T00:02:24;100491.59;;;1.09;81.83
7760;BME280;3924;48.830;9.262;2023-02-14T00:04:51;100484.59;;;1.08;81.77
7760;BME280;3924;48.830;9.262;2023-02-14T00:07:17;100488.28;;;1.07;81.65
7760;BME280;3924;48.830;9.262;2023-02-14T00:09:44;100483.31;;;1.04;81.82
7760;BME280;3924;48.830;9.262;2023-02-14T00:12:10;100490.66;;;1.02;81.71
7760;BME280;3924;48.830;9.262;2023-02-14T00:14:37;100492.69;;;1.00;81.76
7760;BME280;3924;48.830;9.262;2023-02-14T00:17:22;100494.06;;;0.96;81.55
7760;BME280;3924;48.830;9.262;2023-02-14T00:19:48;100491.38;;;0.96;81.80
7760;BME280;3924;48.830;9.262;2023-02-14T00:22:15;100492.25;;;0.96;81.79
7760;BME280;3924;48.830;9.262;2023-02-14T00:24:42;100495.91;;;0.95;82.03
7760;BME280;3924;48.830;9.262;2023-02-14T00:27:08;100481.09;;;0.93;82.04
7760;BME280;3924;48.830;9.262;2023-02-14T00:29:35;100484.41;;;0.95;81.91
7760;BME280;3924;48.830;9.262;2023-02-14T00:32:02;100485.22;;;0.95;81.96
7760;BME280;3924;48.830;9.262;2023-02-14T00:34:29;100489.09;;;0.93;82.06
7760;BME280;3924;48.830;9.262;2023-02-14T00:36:55;100492.97;;;0.90;81.93
7760;BME280;3924;48.830;9.262;2023-02-14T00:39:22;100489.09;;;0.93;82.09
7760;BME280;3924;48.830;9.262;2023-02-14T00:41:48;100482.75;;;0.94;82.09
7760;BME280;3924;48.830;9.262;2023-02-14T00:44:15;100487.06;;;0.95;82.13
7760;BME280;3924;48.830;9.262;2023-02-14T00:46:41;100491.28;;;0.89;82.14
7760;BME280;3924;48.830;9.262;2023-02-14T00:49:08;100493.50;;;0.86;82.07
7760;BME280;3924;48.830;9.262;2023-02-14T00:51:34;100489.38;;;0.83;82.25
7760;BME280;3924;48.830;9.262;2023-02-14T00:54:01;100494.03;;;0.81;82.07
7760;BME280;3924;48.830;9.262;2023-02-14T00:56:28;100490.72;;;0.79;82.09
7760;BME280;3924;48.830;9.262;2023-02-14T00:58:55;100486.59;;;0.76;82.05
7760;BME280;3924;48.830;9.262;2023-02-14T01:01:21;100488.59;;;0.74;82.36
7760;BME280;3924;48.830;9.262;2023-02-14T01:03:47;100485.09;;;0.74;81.98
7760;BME280;3924;48.830;9.262;2023-02-14T01:06:14;100487.75;;;0.74;82.47
7760;BME280;3924;48.830;9.262;2023-02-14T01:08:41;100487.94;;;0.72;82.41
7760;BME280;3924;48.830;9.262;2023-02-14T01:11:10;100490.63;;;0.72;82.55
7760;BME280;3924;48.830;9.262;2023-02-14T01:13:37;100498.00;;;0.70;82.55
7760;BME280;3924;48.830;9.262;2023-02-14T01:16:06;100497.31;;;0.68;82.53
7760;BME280;3924;48.830;9.262;2023-02-14T01:18:34;100494.00;;;0.66;82.46
7760;BME280;3924;48.830;9.262;2023-02-14T01:21:24;100496.03;;;0.64;82.59
7760;BME280;3924;48.830;9.262;2023-02-14T01:23:53;100490.88;;;0.63;82.62
7760;BME280;3924;48.830;9.262;2023-02-14T01:26:21;100488.38;;;0.61;82.47
7760;BME280;3924;48.830;9.262;2023-02-14T01:28:47;100483.03;;;0.61;82.69
7760;BME280;3924;48.830;9.262;2023-02-14T01:31:19;100479.38;;;0.62;82.69
7760;BME280;3924;48.830;9.262;2023-02-14T01:33:48;100483.03;;;0.61;82.69
7760;BME280;3924;48.830;9.262;2023-02-14T01:36:21;100479.72;;;0.59;82.47
7760;BME280;3924;48.830;9.262;2023-02-14T01:39:10;100477.44;;;0.56;82.63
7760;BME280;3924;48.830;9.262;2023-02-14T01:41:38;100473.44;;;0.52;82.81
7760;BME280;3924;48.830;9.262;2023-02-14T01:47:04;100473.81;;;0.49;82.75
7760;BME280;3924;48.830;9.262;2023-02-14T01:49:39;100474.47;;;0.51;82.85
7760;BME280;3924;48.830;9.262;2023-02-14T01:52:16;100468.13;;;0.52;82.79
7760;BME280;3924;48.830;9.262;2023-02-14T01:54:51;100466.47;;;0.51;82.79
7760;BME280;3924;48.830;9.262;2023-02-14T01:57:20;100468.94;;;0.52;82.86
7760;BME280;3924;48.830;9.262;2023-02-14T01:59:51;100478.78;;;0.52;82.61
7760;BME280;3924;48.830;9.262;2023-02-14T02:02:19;100472.13;;;0.48;82.66
7760;BME280;3924;48.830;9.262;2023-02-14T02:04:52;100481.53;;;0.44;82.90
7760;BME280;3924;48.830;9.262;2023-02-14T02:07:23;100479.88;;;0.43;83.14
7760;BME280;3924;48.830;9.262;2023-02-14T02:09:58;100479.88;;;0.43;82.73
7760;BME280;3924;48.830;9.262;2023-02-14T02:12:26;100477.41;;;0.41;83.01
7760;BME280;3924;48.830;9.262;2023-02-14T02:14:57;100478.56;;;0.39;82.90
7760;BME280;3924;48.830;9.262;2023-02-14T02:23:47;100468.91;;;0.38;82.97
7760;BME280;3924;48.830;9.262;2023-02-14T02:37:37;100471.00;;;0.28;83.23
7760;BME280;3924;48.830;9.262;2023-02-14T02:40:14;100478.81;;;0.29;83.46
7760;BME280;3924;48.830;9.262;2023-02-14T02:42:57;100472.66;;;0.29;83.48
7760;BME280;3924;48.830;9.262;2023-02-14T02:48:40;100474.66;;;0.26;83.19
7760;BME280;3924;48.830;9.262;2023-02-14T02:51:14;100470.50;;;0.24;83.37
7760;BME280;3924;48.830;9.262;2023-02-14T02:54:08;100465.69;;;0.19;83.18
7760;BME280;3924;48.830;9.262;2023-02-14T02:56:47;100461.06;;;0.13;83.29
7760;BME280;3924;48.830;9.262;2023-02-14T02:59:29;100462.09;;;0.12;83.49
7760;BME280;3924;48.830;9.262;2023-02-14T03:02:18;100462.44;;;0.09;83.04
7760;BME280;3924;48.830;9.262;2023-02-14T03:04:50;100463.28;;;0.10;83.41
7760;BME280;3924;48.830;9.262;2023-02-14T03:07:40;100467.78;;;0.09;83.23
7760;BME280;3924;48.830;9.262;2023-02-14T03:21:22;100469.06;;;0.13;83.61
7760;BME280;3924;48.830;9.262;2023-02-14T03:27:18;100475.41;;;0.12;83.48
7760;BME280;3924;48.830;9.262;2023-02-14T03:30:00;100474.41;;;0.13;83.46
7760;BME280;3924;48.830;9.262;2023-02-14T03:32:51;100473.75;;;0.11;83.27
7760;BME280;3924;48.830;9.262;2023-02-14T03:38:10;100469.81;;;0.07;83.58
7760;BME280;3924;48.830;9.262;2023-02-14T03:40:42;100471.63;;;0.07;83.57
7760;BME280;3924;48.830;9.262;2023-02-14T03:43:17;100469.13;;;0.05;83.60
7760;BME280;3924;48.830;9.262;2023-02-14T03:48:39;100464.47;;;0.07;83.45
7760;BME280;3924;48.830;9.262;2023-02-14T03:51:09;100464.81;;;0.04;83.32
7760;BME280;3924;48.830;9.262;2023-02-14T03:53:40;100465.19;;;0.01;83.54
7760;BME280;3924;48.830;9.262;2023-02-14T03:56:36;100466.19;;;0.00;83.74
7760;BME280;3924;48.830;9.262;2023-02-14T03:59:09;100460.19;;;-0.02;83.71
7760;BME280;3924;48.830;9.262;2023-02-14T04:01:49;100458.53;;;-0.03;83.56
7760;BME280;3924;48.830;9.262;2023-02-14T04:04:21;100453.19;;;-0.03;83.71
7760;BME280;3924;48.830;9.262;2023-02-14T04:06:48;100449.53;;;-0.02;83.67
7760;BME280;3924;48.830;9.262;2023-02-14T04:09:15;100452.00;;;-0.01;83.75
7760;BME280;3924;48.830;9.262;2023-02-14T04:11:41;100449.53;;;-0.02;83.71
7760;BME280;3924;48.830;9.262;2023-02-14T04:14:08;100450.84;;;0.02;83.71
7760;BME280;3924;48.830;9.262;2023-02-14T04:16:34;100457.19;;;0.01;83.91
7760;BME280;3924;48.830;9.262;2023-02-14T04:19:21;100452.88;;;0.00;83.90
7760;BME280;3924;48.830;9.262;2023-02-14T04:21:50;100452.88;;;0.00;84.10
7760;BME280;3924;48.830;9.262;2023-02-14T04:24:18;100457.34;;;-0.01;83.95
7760;BME280;3924;48.830;9.262;2023-02-14T04:26:44;100448.69;;;-0.03;84.13
7760;BME280;3924;48.830;9.262;2023-02-14T04:29:41;100446.84;;;-0.02;83.82
7760;BME280;3924;48.830;9.262;2023-02-14T04:32:10;100447.03;;;-0.04;84.00
7760;BME280;3924;48.830;9.262;2023-02-14T04:34:38;100452.38;;;-0.04;83.92
7760;BME280;3924;48.830;9.262;2023-02-14T04:37:05;100453.38;;;-0.05;83.64
7760;BME280;3924;48.830;9.262;2023-02-14T04:39:32;100454.53;;;-0.07;83.70
7760;BME280;3924;48.830;9.262;2023-02-14T04:41:59;100448.94;;;-0.12;83.86
7760;BME280;3924;48.830;9.262;2023-02-14T04:44:25;100455.91;;;-0.11;84.21
7760;BME280;3924;48.830;9.262;2023-02-14T04:46:52;100447.75;;;-0.10;83.89
7760;BME280;3924;48.830;9.262;2023-02-14T04:49:19;100450.59;;;-0.11;84.15
7760;BME280;3924;48.830;9.262;2023-02-14T04:51:46;100447.09;;;-0.12;83.91
7760;BME280;3924;48.830;9.262;2023-02-14T04:54:12;100445.25;;;-0.11;83.97
7760;BME280;3924;48.830;9.262;2023-02-14T04:56:39;100446.41;;;-0.14;83.98
7760;BME280;3924;48.830;9.262;2023-02-14T04:59:06;100440.94;;;-0.12;83.87
7760;BME280;3924;48.830;9.262;2023-02-14T05:01:32;100444.44;;;-0.12;84.12
7760;BME280;3924;48.830;9.262;2023-02-14T05:03:59;100446.41;;;-0.14;83.77
7760;BME280;3924;48.830;9.262;2023-02-14T05:06:25;100443.13;;;-0.16;84.31
7760;BME280;3924;48.830;9.262;2023-02-14T05:08:52;100442.47;;;-0.18;84.08
7760;BME280;3924;48.830;9.262;2023-02-14T05:11:18;100444.31;;;-0.18;83.97
7760;BME280;3924;48.830;9.262;2023-02-14T05:13:44;100442.66;;;-0.19;84.11
7760;BME280;3924;48.830;9.262;2023-02-14T05:16:11;100435.31;;;-0.17;84.15
7760;BME280;3924;48.830;9.262;2023-02-14T05:18:38;100442.66;;;-0.19;84.14
7760;BME280;3924;48.830;9.262;2023-02-14T05:21:05;100444.63;;;-0.21;84.08
7760;BME280;3924;48.830;9.262;2023-02-14T05:23:31;100448.31;;;-0.22;84.13
7760;BME280;3924;48.830;9.262;2023-02-14T05:25:58;100446.66;;;-0.23;84.19
7760;BME280;3924;48.830;9.262;2023-02-14T05:28:24;100452.34;;;-0.26;84.13
7760;BME280;3924;48.830;9.262;2023-02-14T05:30:51;100440.00;;;-0.28;84.17
7760;BME280;3924;48.830;9.262;2023-02-14T05:33:17;100444.34;;;-0.26;84.18
7760;BME280;3924;48.830;9.262;2023-02-14T05:35:44;100443.34;;;-0.25;84.35
7760;BME280;3924;48.830;9.262;2023-02-14T05:38:10;100440.88;;;-0.27;84.15
7760;BME280;3924;48.830;9.262;2023-02-14T05:40:39;100442.03;;;-0.30;84.00
7760;BME280;3924;48.830;9.262;2023-02-14T05:43:05;100444.34;;;-0.26;84.16
7760;BME280;3924;48.830;9.262;2023-02-14T05:45:32;100446.19;;;-0.27;84.24
7760;BME280;3924;48.830;9.262;2023-02-14T05:47:59;100442.03;;;-0.30;84.23
7760;BME280;3924;48.830;9.262;2023-02-14T05:50:25;100451.22;;;-0.32;84.19
7760;BME280;3924;48.830;9.262;2023-02-14T05:52:52;100452.22;;;-0.33;84.26
7760;BME280;3924;48.830;9.262;2023-02-14T05:55:18;100460.22;;;-0.33;84.35
7760;BME280;3924;48.830;9.262;2023-02-14T05:57:45;100454.22;;;-0.35;84.32
7760;BME280;3924;48.830;9.262;2023-02-14T06:00:13;100456.03;;;-0.36;84.32
7760;BME280;3924;48.830;9.262;2023-02-14T06:02:39;100456.22;;;-0.37;84.47
7760;BME280;3924;48.830;9.262;2023-02-14T06:05:06;100462.75;;;-0.40;84.47
7760;BME280;3924;48.830;9.262;2023-02-14T06:07:33;100459.91;;;-0.38;84.34
7760;BME280;3924;48.830;9.262;2023-02-14T06:09:59;100463.56;;;-0.39;84.36
7760;BME280;3924;48.830;9.262;2023-02-14T06:12:26;100463.06;;;-0.43;84.38
7760;BME280;3924;48.830;9.262;2023-02-14T06:14:52;100471.75;;;-0.41;84.46
7760;BME280;3924;48.830;9.262;2023-02-14T06:17:19;100467.41;;;-0.42;84.47
7760;BME280;3924;48.830;9.262;2023-02-14T06:19:45;100468.06;;;-0.40;84.58
7760;BME280;3924;48.830;9.262;2023-02-14T06:22:12;100466.41;;;-0.41;84.52
7760;BME280;3924;48.830;9.262;2023-02-14T06:24:38;100472.72;;;-0.42;84.42
7760;BME280;3924;48.830;9.262;2023-02-14T06:27:05;100468.41;;;-0.43;84.22
7760;BME280;3924;48.830;9.262;2023-02-14T06:29:31;100468.75;;;-0.46;84.31
7760;BME280;3924;48.830;9.262;2023-02-14T06:31:57;100476.09;;;-0.48;84.47
7760;BME280;3924;48.830;9.262;2023-02-14T06:34:34;100472.75;;;-0.50;84.53
7760;BME280;3924;48.830;9.262;2023-02-14T06:37:00;100467.44;;;-0.50;84.56
7760;BME280;3924;48.830;9.262;2023-02-14T06:39:27;100477.25;;;-0.50;84.58
7760;BME280;3924;48.830;9.262;2023-02-14T06:41:53;100474.78;;;-0.52;84.49
7760;BME280;3924;48.830;9.262;2023-02-14T06:44:20;100473.59;;;-0.49;84.60
7760;BME280;3924;48.830;9.262;2023-02-14T06:46:46;100479.25;;;-0.44;84.70
7760;BME280;3924;48.830;9.262;2023-02-14T06:49:12;100477.41;;;-0.44;84.51
7760;BME280;3924;48.830;9.262;2023-02-14T06:51:39;100485.22;;;-0.42;84.22
7760;BME280;3924;48.830;9.262;2023-02-14T06:54:05;100485.41;;;-0.44;84.46
7760;BME280;3924;48.830;9.262;2023-02-14T06:56:32;100484.06;;;-0.40;84.67
7760;BME280;3924;48.830;9.262;2023-02-14T06:59:00;100481.03;;;-0.37;84.59
7760;BME280;3924;48.830;9.262;2023-02-14T07:01:26;100480.84;;;-0.35;84.46
7760;BME280;3924;48.830;9.262;2023-02-14T07:03:53;100476.34;;;-0.35;84.29
7760;BME280;3924;48.830;9.262;2023-02-14T07:06:19;100478.03;;;-0.34;84.51
7760;BME280;3924;48.830;9.262;2023-02-14T07:08:46;100487.69;;;-0.33;84.44
7760;BME280;3924;48.830;9.262;2023-02-14T07:11:12;100479.69;;;-0.33;84.25
7760;BME280;3924;48.830;9.262;2023-02-14T07:13:38;100472.72;;;-0.34;84.37
7760;BME280;3924;48.830;9.262;2023-02-14T07:16:05;100474.00;;;-0.30;84.33
7760;BME280;3924;48.830;9.262;2023-02-14T07:18:31;100470.31;;;-0.29;84.56
7760;BME280;3924;48.830;9.262;2023-02-14T07:20:58;100461.00;;;-0.24;84.37
7760;BME280;3924;48.830;9.262;2023-02-14T07:23:25;100467.78;;;-0.22;84.42
7760;BME280;3924;48.830;9.262;2023-02-14T07:25:51;100469.31;;;-0.19;84.20
7760;BME280;3924;48.830;9.262;2023-02-14T07:28:18;100474.25;;;-0.16;84.24
7760;BME280;3924;48.830;9.262;2023-02-14T07:30:44;100476.75;;;-0.15;84.03
7760;BME280;3924;48.830;9.262;2023-02-14T07:33:11;100473.81;;;-0.20;83.95
7760;BME280;3924;48.830;9.262;2023-02-14T07:35:37;100478.41;;;-0.14;84.13
7760;BME280;3924;48.830;9.262;2023-02-14T07:38:05;100464.56;;;-0.09;84.25
7760;BME280;3924;48.830;9.262;2023-02-14T07:40:31;100469.38;;;-0.05;83.98
7760;BME280;3924;48.830;9.262;2023-02-14T07:42:58;100466.19;;;0.00;84.16
7760;BME280;3924;48.830;9.262;2023-02-14T07:45:26;100474.47;;;0.05;83.83
7760;BME280;3924;48.830;9.262;2023-02-14T07:47:53;100466.47;;;0.05;83.95
7760;BME280;3924;48.830;9.262;2023-02-14T07:50:21;100472.28;;;0.09;84.14
7760;BME280;3924;48.830;9.262;2023-02-14T07:52:48;100467.78;;;0.09;83.81
7760;BME280;3924;48.830;9.262;2023-02-14T07:55:15;100474.91;;;0.17;84.20
7760;BME280;3924;48.830;9.262;2023-02-14T07:57:41;100473.00;;;0.25;84.13
7760;BME280;3924;48.830;9.262;2023-02-14T08:00:08;100465.28;;;0.31;83.87
7760;BME280;3924;48.830;9.262;2023-02-14T08:02:35;100461.91;;;0.37;84.03
7760;BME280;3924;48.830;9.262;2023-02-14T08:05:01;100461.00;;;0.44;83.75
7760;BME280;3924;48.830;9.262;2023-02-14T08:07:29;100473.00;;;0.48;83.81
7760;BME280;3924;48.830;9.262;2023-02-14T08:09:55;100465.09;;;0.55;83.74
7760;BME280;3924;48.830;9.262;2023-02-14T08:12:22;100467.03;;;0.61;83.53
7760;BME280;3924;48.830;9.262;2023-02-14T08:15:07;100458.03;;;0.62;83.53
7760;BME280;3924;48.830;9.262;2023-02-14T08:17:52;100461.44;;;0.71;83.73
7760;BME280;3924;48.830;9.262;2023-02-14T08:20:18;100464.22;;;0.77;83.60
7760;BME280;3924;48.830;9.262;2023-02-14T08:22:45;100462.50;;;0.85;83.45
7760;BME280;3924;48.830;9.262;2023-02-14T08:25:11;100462.59;;;0.91;83.33
7760;BME280;3924;48.830;9.262;2023-02-14T08:27:38;100472.34;;;0.99;83.43
7760;BME280;3924;48.830;9.262;2023-02-14T08:30:04;100461.97;;;1.04;83.41
7760;BME280;3924;48.830;9.262;2023-02-14T08:32:31;100458.09;;;1.06;83.35
7760;BME280;3924;48.830;9.262;2023-02-14T08:34:58;100457.88;;;1.08;82.95
7760;BME280;3924;48.830;9.262;2023-02-14T08:37:24;100454.69;;;1.13;83.17
7760;BME280;3924;48.830;9.262;2023-02-14T08:39:51;100465.47;;;1.19;83.07
7760;BME280;3924;48.830;9.262;2023-02-14T08:42:17;100465.06;;;1.22;82.92
7760;BME280;3924;48.830;9.262;2023-02-14T08:44:44;100461.03;;;1.26;83.08
7760;BME280;3924;48.830;9.262;2023-02-14T08:47:10;100454.31;;;1.30;83.06
7760;BME280;3924;48.830;9.262;2023-02-14T08:49:36;100459.91;;;1.35;82.87
7760;BME280;3924;48.830;9.262;2023-02-14T08:52:03;100447.84;;;1.40;82.87
7760;BME280;3924;48.830;9.262;2023-02-14T08:54:29;100454.66;;;1.42;82.88
7760;BME280;3924;48.830;9.262;2023-02-14T08:56:56;100445.72;;;1.50;82.67
7760;BME280;3924;48.830;9.262;2023-02-14T08:59:23;100449.13;;;1.58;82.74
7760;BME280;3924;48.830;9.262;2023-02-14T09:01:49;100446.53;;;1.65;82.44
7760;BME280;3924;48.830;9.262;2023-02-14T09:04:16;100442.19;;;1.64;82.44
7760;BME280;3924;48.830;9.262;2023-02-14T09:06:42;100436.91;;;1.71;82.54
7760;BME280;3924;48.830;9.262;2023-02-14T09:09:09;100438.59;;;1.72;82.66
7760;BME280;3924;48.830;9.262;2023-02-14T09:11:35;100439.66;;;1.77;82.48
7760;BME280;3924;48.830;9.262;2023-02-14T09:14:02;100440.75;;;1.83;82.50
7760;BME280;3924;48.830;9.262;2023-02-14T09:16:28;100435.47;;;1.89;82.50
7760;BME280;3924;48.830;9.262;2023-02-14T09:18:55;100430.66;;;2.00;82.43
7760;BME280;3924;48.830;9.262;2023-02-14T09:21:24;100425.81;;;2.10;82.25
7760;BME280;3924;48.830;9.262;2023-02-14T09:23:53;100430.84;;;2.19;82.13
7760;BME280;3924;48.830;9.262;2023-02-14T09:26:20;100424.56;;;2.27;82.01
7760;BME280;3924;48.830;9.262;2023-02-14T09:28:46;100417.78;;;2.31;81.98
7760;BME280;3924;48.830;9.262;2023-02-14T09:31:16;100426.47;;;2.40;81.80
7760;BME280;3924;48.830;9.262;2023-02-14T09:33:44;100418.50;;;2.46;81.90
7760;BME280;3924;48.830;9.262;2023-02-14T09:36:11;100412.22;;;2.54;81.90
7760;BME280;3924;48.830;9.262;2023-02-14T09:38:56;100416.41;;;2.63;81.86
7760;BME280;3924;48.830;9.262;2023-02-14T09:44:10;100412.84;;;2.84;81.58
7760;BME280;3924;48.830;9.262;2023-02-14T09:46:44;100402.41;;;2.96;81.21
7760;BME280;3924;48.830;9.262;2023-02-14T09:49:15;100404.31;;;3.09;81.25
7760;BME280;3924;48.830;9.262;2023-02-14T09:51:49;100413.44;;;3.21;80.95
7760;BME280;3924;48.830;9.262;2023-02-14T09:54:20;100413.94;;;3.31;81.06
7760;BME280;3924;48.830;9.262;2023-02-14T09:57:10;100392.53;;;3.44;80.88
7760;BME280;3924;48.830;9.262;2023-02-14T10:02:20;100395.94;;;3.73;80.52
7760;BME280;3924;48.830;9.262;2023-02-14T10:16:15;100395.81;;;4.41;79.55
7760;BME280;3924;48.830;9.262;2023-02-14T10:19:06;100391.88;;;4.56;79.46
7760;BME280;3924;48.830;9.262;2023-02-14T10:21:41;100380.50;;;4.68;79.10
7760;BME280;3924;48.830;9.262;2023-02-14T10:24:17;100381.50;;;4.80;78.92
7760;BME280;3924;48.830;9.262;2023-02-14T10:26:48;100377.56;;;4.96;78.78
7760;BME280;3924;48.830;9.262;2023-02-14T10:29:17;100370.72;;;5.00;78.75
7760;BME280;3924;48.830;9.262;2023-02-14T10:45:38;100356.50;;;5.75;77.72
7760;BME280;3924;48.830;9.262;2023-02-14T10:48:19;100357.09;;;5.91;77.24
7760;BME280;3924;48.830;9.262;2023-02-14T10:51:16;100350.56;;;6.05;77.08
7760;BME280;3924;48.830;9.262;2023-02-14T10:54:24;100349.38;;;6.26;76.53
7760;BME280;3924;48.830;9.262;2023-02-14T10:56:59;100347.81;;;6.37;76.41
7760;BME280;3924;48.830;9.262;2023-02-14T10:59:31;100340.66;;;6.49;76.30
7760;BME280;3924;48.830;9.262;2023-02-14T11:02:00;100342.19;;;6.63;76.17
7760;BME280;3924;48.830;9.262;2023-02-14T11:04:29;100333.06;;;6.82;75.73
7760;BME280;3924;48.830;9.262;2023-02-14T11:06:56;100333.28;;;6.99;75.60
7760;BME280;3924;48.830;9.262;2023-02-14T11:09:23;100337.28;;;7.15;75.35
7760;BME280;3924;48.830;9.262;2023-02-14T11:11:55;100328.41;;;7.26;74.97
7760;BME280;3924;48.830;9.262;2023-02-14T11:14:36;100329.69;;;7.24;75.15
7760;BME280;3924;48.830;9.262;2023-02-14T11:19:58;100320.94;;;7.28;74.74
7760;BME280;3924;48.830;9.262;2023-02-14T11:22:29;100314.84;;;7.33;74.57
7760;BME280;3924;48.830;9.262;2023-02-14T11:25:17;100309.03;;;7.48;74.66
7760;BME280;3924;48.830;9.262;2023-02-14T11:27:46;100304.66;;;7.65;73.95
7760;BME280;3924;48.830;9.262;2023-02-14T11:30:30;100307.28;;;7.83;73.74
7760;BME280;3924;48.830;9.262;2023-02-14T11:32:59;100310.38;;;7.99;73.42
7760;BME280;3924;48.830;9.262;2023-02-14T11:35:27;100301.09;;;8.06;73.17
7760;BME280;3924;48.830;9.262;2023-02-14T11:38:01;100295.09;;;8.16;72.87
7760;BME280;3924;48.830;9.262;2023-02-14T11:40:31;100297.38;;;8.31;72.73
7760;BME280;3924;48.830;9.262;2023-02-14T11:43:19;100288.13;;;8.38;72.39
7760;BME280;3924;48.830;9.262;2023-02-14T11:48:36;100279.41;;;8.60;72.08
7760;BME280;3924;48.830;9.262;2023-02-14T11:51:14;100283.38;;;8.69;71.52
7760;BME280;3924;48.830;9.262;2023-02-14T11:54:04;100277.84;;;8.75;71.22
7760;BME280;3924;48.830;9.262;2023-02-14T11:59:52;100264.19;;;8.94;71.19
7760;BME280;3924;48.830;9.262;2023-02-14T12:02:40;100264.22;;;9.11;70.42
7760;BME280;3924;48.830;9.262;2023-02-14T12:09:29;100258.50;;;9.36;70.01
7760;BME280;3924;48.830;9.262;2023-02-14T12:12:16;100254.06;;;9.46;69.86
7760;BME280;3924;48.830;9.262;2023-02-14T12:22:24;100238.78;;;9.69;68.98
7760;BME280;3924;48.830;9.262;2023-02-14T12:25:21;100236.22;;;9.79;68.72
7760;BME280;3924;48.830;9.262;2023-02-14T12:28:39;100226.94;;;9.58;69.31
7760;BME280;3924;48.830;9.262;2023-02-14T12:56:33;100200.41;;;10.66;65.56
7760;BME280;3924;48.830;9.262;2023-02-14T13:16:51;100173.50;;;10.43;65.84
7760;BME280;3924;48.830;9.262;2023-02-14T13:19:44;100176.13;;;10.54;65.82
7760;BME280;3924;48.830;9.262;2023-02-14T13:22:24;100159.16;;;10.64;65.67
7760;BME280;3924;48.830;9.262;2023-02-14T13:25:48;100160.16;;;10.58;64.72
7760;BME280;3924;48.830;9.262;2023-02-14T13:36:43;100152.22;;;10.51;64.75
7760;BME280;3924;48.830;9.262;2023-02-14T13:40:24;100150.88;;;10.54;64.57
7760;BME280;3924;48.830;9.262;2023-02-14T13:44:34;100147.53;;;10.68;64.08
7760;BME280;3924;48.830;9.262;2023-02-14T13:47:24;100146.16;;;10.66;64.57
7760;BME280;3924;48.830;9.262;2023-02-14T13:49:58;100151.97;;;10.53;65.07
7760;BME280;3924;48.830;9.262;2023-02-14T13:52:57;100147.25;;;10.43;64.85
7760;BME280;3924;48.830;9.262;2023-02-14T13:55:26;100147.44;;;10.36;65.18
7760;BME280;3924;48.830;9.262;2023-02-14T13:58:05;100143.31;;;10.34;64.86
7760;BME280;3924;48.830;9.262;2023-02-14T14:00:40;100148.00;;;10.38;64.89
7760;BME280;3924;48.830;9.262;2023-02-14T14:11:01;100140.75;;;10.05;65.28
7760;BME280;3924;48.830;9.262;2023-02-14T14:18:50;100131.41;;;9.96;65.23
7760;BME280;3924;48.830;9.262;2023-02-14T14:21:24;100134.53;;;9.88;65.42
7760;BME280;3924;48.830;9.262;2023-02-14T14:26:59;100127.81;;;9.74;65.80
7760;BME280;3924;48.830;9.262;2023-02-14T14:29:35;100132.41;;;9.73;65.39
7760;BME280;3924;48.830;9.262;2023-02-14T14:32:50;100122.34;;;9.69;65.63
7760;BME280;3924;48.830;9.262;2023-02-14T14:34:59;100127.28;;;9.55;65.28
7760;BME280;3924;48.830;9.262;2023-02-14T14:37:32;100130.38;;;9.47;65.91
7760;BME280;3924;48.830;9.262;2023-02-14T14:40:02;100132.19;;;9.41;65.94
7760;BME280;3924;48.830;9.262;2023-02-14T14:42:33;100116.03;;;9.29;66.27
7760;BME280;3924;48.830;9.262;2023-02-14T14:45:07;100121.25;;;9.19;66.28
7760;BME280;3924;48.830;9.262;2023-02-14T14:47:47;100123.91;;;9.14;66.61
7760;BME280;3924;48.830;9.262;2023-02-14T14:50:34;100116.50;;;9.10;66.77
7760;BME280;3924;48.830;9.262;2023-02-14T14:57:19;100118.28;;;8.87;66.87
7760;BME280;3924;48.830;9.262;2023-02-14T15:00:30;100127.47;;;8.86;67.01
7760;BME280;3924;48.830;9.262;2023-02-14T15:03:34;100120.31;;;8.80;67.51
7760;BME280;3924;48.830;9.262;2023-02-14T15:06:16;100118.06;;;8.77;67.51
7760;BME280;3924;48.830;9.262;2023-02-14T15:08:49;100121.03;;;8.75;67.83
7760;BME280;3924;48.830;9.262;2023-02-14T15:11:31;100118.81;;;8.72;67.32
7760;BME280;3924;48.830;9.262;2023-02-14T15:14:57;100114.44;;;8.71;67.27
7760;BME280;3924;48.830;9.262;2023-02-14T15:17:52;100117.91;;;8.67;67.43
7760;BME280;3924;48.830;9.262;2023-02-14T15:24:15;100119.69;;;8.61;67.68
7760;BME280;3924;48.830;9.262;2023-02-14T15:30:07;100120.38;;;8.57;68.04
7760;BME280;3924;48.830;9.262;2023-02-14T15:33:20;100119.50;;;8.51;67.27
7760;BME280;3924;48.830;9.262;2023-02-14T15:40:17;100117.28;;;8.36;67.59
7760;BME280;3924;48.830;9.262;2023-02-14T15:48:50;100110.97;;;8.19;68.40
7760;BME280;3924;48.830;9.262;2023-02-14T15:51:24;100112.97;;;8.12;68.30
7760;BME280;3924;48.830;9.262;2023-02-14T15:54:01;100112.03;;;8.06;68.75
7760;BME280;3924;48.830;9.262;2023-02-14T15:56:34;100101.34;;;8.00;69.02
7760;BME280;3924;48.830;9.262;2023-02-14T15:59:09;100116.06;;;7.92;69.03
7760;BME280;3924;48.830;9.262;2023-02-14T16:01:37;100116.16;;;7.85;69.29
7760;BME280;3924;48.830;9.262;2023-02-14T16:04:05;100115.09;;;7.75;69.20
7760;BME280;3924;48.830;9.262;2023-02-14T16:06:43;100118.03;;;7.61;69.80
7760;BME280;3924;48.830;9.262;2023-02-14T16:09:27;100119.31;;;7.47;69.65
7760;BME280;3924;48.830;9.262;2023-02-14T16:11:54;100116.63;;;7.35;70.00
7760;BME280;3924;48.830;9.262;2023-02-14T16:14:32;100120.94;;;7.25;70.24
7760;BME280;3924;48.830;9.262;2023-02-14T16:17:06;100119.88;;;7.14;70.71
7760;BME280;3924;48.830;9.262;2023-02-14T16:19:43;100124.56;;;7.07;70.74
7760;BME280;3924;48.830;9.262;2023-02-14T16:22:22;100115.63;;;6.95;70.88
7760;BME280;3924;48.830;9.262;2023-02-14T16:24:49;100120.28;;;6.88;71.30
7760;BME280;3924;48.830;9.262;2023-02-14T16:27:16;100120.38;;;6.81;71.35
7760;BME280;3924;48.830;9.262;2023-02-14T16:29:42;100123.16;;;6.74;71.28
7760;BME280;3924;48.830;9.262;2023-02-14T16:32:12;100115.41;;;6.66;71.57
7760;BME280;3924;48.830;9.262;2023-02-14T16:34:43;100118.63;;;6.56;71.79
7760;BME280;3924;48.830;9.262;2023-02-14T16:37:28;100116.47;;;6.47;71.97
7760;BME280;3924;48.830;9.262;2023-02-14T16:39:56;100127.34;;;6.40;72.30
7760;BME280;3924;48.830;9.262;2023-02-14T16:42:24;100126.59;;;6.33;72.43
7760;BME280;3924;48.830;9.262;2023-02-14T16:44:52;100123.16;;;6.26;72.42
7760;BME280;3924;48.830;9.262;2023-02-14T16:47:19;100123.00;;;6.21;72.77
7760;BME280;3924;48.830;9.262;2023-02-14T16:49:46;100123.91;;;6.15;72.47
7760;BME280;3924;48.830;9.262;2023-02-14T16:52:16;100123.38;;;6.06;72.74